Terminal Aerodrome Forecast
Issued by NWS Albany, NY

Home | Current Version | Previous Version | Text Only | Print | Product List | Glossary On
Versions: 1 2 3 4 5 6 7 8 9 10 11 12 13 14 15 16
151
FTUS41 KALY 221620 AAB
TAFPOU
TAF AMD
KPOU 221620Z 2216/2312 27013G19KT P6SM FEW070
     FM221800 29014G24KT P6SM SCT070
     FM230000 31010KT P6SM SKC
     FM230500 VRB02KT P6SM SKC=

USA.gov is the U.S. government's official web portal to all federal, state and local government web resources and services.